Station: Geelong Racecourse  

  Atmospheric Gas Attenuation - ITU Rec 676-11   ----------------- dB/100km -----------------
Date Time Temp RH % AH g/m3 Dew Point Wind Direction Speed kph Gust kph Barometer mB Rainfall Since 9am 24GHz 47GHz 76GHz 122GHz 134GHz 241GHz
08/05 12:30 16.5 64 8.99 9.7 15 22 1023.5 0 20.3 26.1 40.4 106.1 100.9 347.5
08/05 12:20 16.7 65 9.24 10.1 13 17 1023.5 0 20.8 26.5 41.3 108.4 103.9 358.0
08/05 12:10 17 68 9.84 11 11 15 1023.6 0 22.1 27.3 43.6 114.5 111.4 384.3
08/05 12:00 16.3 66 9.16 9.9 19 30 1023.8 0 20.6 26.5 41.2 108.2 103.4 356.2
08/05 11:50 16.3 63 8.74 9.2 22 26 1023.8 0 19.8 25.8 39.6 103.7 97.9 337.1
08/05 11:40 16.8 64 9.15 10.1 19 22 1023.7 0 20.6 26.3 40.9 107.4 102.6 353.5
08/05 11:30 15.9 69 9.34 10.2 19 28 1023.7 0 21.0 26.9 42.2 110.6 106.3 366.3
08/05 11:20 16.3 66 9.16 10.1 19 28 1023.6 0 20.6 26.5 41.2 108.2 103.4 356.2
08/05 11:10 16.5 67 9.41 10.5 15 19 1023.5 0 21.2 26.8 42.1 110.5 106.4 366.7
08/05 11:00 15.9 75 10.16 11.5 17 26 1023.6 0 22.8 28.2 45.5 119.6 117.3 404.9
08/05 10:50 15.2 75 9.73 10.8 20 24 1023.6 0 21.9 27.7 44.1 115.9 112.5 388.0
08/05 10:40 15.6 76 10.11 11.5 20 22 1023.5 0 22.7 28.2 45.5 119.5 117.1 404.0
08/05 10:30 15.3 75 9.79 10.9 20 33 1023.3 0 22.0 27.8 44.3 116.4 113.2 390.2
08/05 10:20 15 76 9.75 10.8 26 30 1023.3 0 22.0 27.8 44.3 116.4 113.1 389.8
08/05 10:10 15.4 77 10.12 11.5 17 20 1023.2 0 22.7 28.3 45.6 119.9 117.5 405.5
08/05 10:00 14.7 81 10.2 11.5 15 22 1023.1 0 22.9 28.7 46.4 121.8 119.7 413.0
08/05 09:50 14.1 81 9.83 11 17 24 1023 0 22.2 28.2 45.1 118.6 115.5 398.1
08/05 09:40 14.4 79 9.77 10.8 20 26 1023 0 22.0 28.0 44.7 117.5 114.2 393.7
08/05 09:30 14.3 80 9.83 10.9 19 28 1022.9 0 22.2 28.1 45.0 118.3 115.2 397.1
08/05 09:20 14.4 80 9.89 11 19 20 1022.9 0 22.3 28.2 45.2 118.8 115.8 399.5
08/05 09:10 14.2 80 9.77 10.8 15 17 1022.6 0 22.1 28.1 44.8 117.7 114.5 394.6
08/05 09:00 14.1 82 9.95 11.1 17 24 1022.5 0 22.4 28.4 45.6 119.9 117.1 403.8
08/05 08:50 13.6 82 9.65 10.7 17 19 1022.3 1.8 21.8 28.0 44.6 117.2 113.7 391.8
08/05 08:40 13.4 84 9.77 10.7 19 20 1022.3 1.8 22.1 28.3 45.3 118.9 115.6 398.6
08/05 08:30 13.1 86 9.81 10.8 13 20 1022.4 1.8 22.2 28.5 45.6 119.8 116.6 402.1
08/05 08:20 12.7 88 9.8 10.7 13 17 1022.4 1.8 22.2 28.6 45.8 120.3 117.1 403.7
08/05 08:10 12.6 88 9.74 10.6 13 15 1022.4 1.6 22.1 28.5 45.6 119.8 116.4 401.3
08/05 08:00 12.6 89 9.85 10.8 15 20 1022.3 1.6 22.3 28.7 46.1 121.0 118.0 406.7
08/05 07:50 12.5 90 9.9 10.9 13 17 1022 1.6 22.4 28.8 46.3 121.7 118.8 409.6
08/05 07:40 12.1 90 9.65 10.6 17 19 1021.7 1.6 21.9 28.5 45.5 119.5 115.9 399.2
08/05 07:30 11.9 91 9.64 10.5 11 19 1021.6 1.6 21.9 28.5 45.5 119.6 116.0 399.7
08/05 07:20 12 90 9.59 10.5 15 20 1021.6 1.6 21.8 28.4 45.3 118.9 115.1 396.7
08/05 07:10 11.9 90 9.53 10.4 7 9 1021.4 1.6 21.7 28.3 45.1 118.4 114.4 394.2
08/05 07:00 11.9 91 9.64 10.5 11 17 1021.4 1.6 21.9 28.5 45.5 119.6 116.0 399.7
08/05 06:50 12 90 9.59 10.5 11 13 1021.3 1.6 21.8 28.4 45.3 118.9 115.1 396.6
08/05 06:40 12.3 92 9.99 11 9 9 1021.3 1.6 22.6 29.0 46.8 123.0 120.3 414.9
08/05 06:30 12.2 91 9.82 10.8 11 19 1021.1 1.6 22.3 28.7 46.1 121.2 118.0 406.9
08/05 06:20 12.3 90 9.77 10.8 13 15 1021 1.6 22.2 28.6 45.8 120.4 117.2 403.9
08/05 06:10 12.6 90 9.96 11 13 13 1021.1 1.6 22.6 28.8 46.5 122.2 119.4 411.7
08/05 06:00 12.7 89 9.91 10.9 15 22 1021 1.6 22.4 28.7 46.2 121.4 118.5 408.7
08/05 05:50 12.6 89 9.85 10.8 11 15 1020.9 1.6 22.3 28.7 46.0 120.9 117.8 406.2
08/05 05:40 12.5 89 9.79 10.7 11 17 1020.7 1.6 22.2 28.6 45.8 120.3 117.1 403.7
08/05 05:30 12.5 89 9.79 10.7 19 26 1020.6 1.6 22.2 28.6 45.8 120.3 117.1 403.7
08/05 05:20 12.8 88 9.86 10.8 20 28 1020.5 1.6 22.3 28.6 45.9 120.6 117.6 405.5
08/05 05:10 12.8 87 9.75 10.7 13 17 1020.4 1.6 22.1 28.4 45.4 119.4 116.1 400.1
08/05 05:00 12.8 87 9.75 10.7 19 26 1020.3 1.6 22.1 28.4 45.4 119.4 116.1 400.1
08/05 04:50 12.9 86 9.69 10.6 22 30 1020.2 1.6 22.0 28.3 45.1 118.5 115.1 396.6
08/05 04:40 13 86 9.75 10.7 17 20 1020.1 1.6 22.1 28.3 45.3 119.0 115.7 399.0
08/05 04:30 13 86 9.75 10.7 19 28 1019.9 1.6 22.1 28.3 45.3 119.0 115.7 398.9
08/05 04:20 13.1 85 9.7 10.6 20 26 1019.9 1.6 22.0 28.2 45.0 118.3 114.9 396.0
08/05 04:10 13.1 86 9.81 10.8 19 24 1019.9 1.6 22.2 28.4 45.5 119.5 116.4 401.3
08/05 04:00 13 86 9.75 10.7 19 32 1019.6 1.6 22.1 28.3 45.3 119.0 115.7 398.8
08/05 03:50 13 86 9.75 10.8 15 20 1019.6 1.6 22.1 28.3 45.3 119.0 115.7 398.8
08/05 03:40 13 86 9.75 10.8 22 26 1019.5 1.6 22.1 28.3 45.3 119.0 115.7 398.8
08/05 03:30 12.9 88 9.92 11 15 24 1019.4 1.6 22.5 28.6 46.1 121.0 118.2 407.6
08/05 03:20 12.8 88 9.86 10.8 13 17 1019.5 1.6 22.3 28.5 45.9 120.5 117.5 405.2
08/05 03:10 12.8 88 9.86 10.8 15 22 1019.5 1.6 22.3 28.5 45.9 120.5 117.5 405.2
08/05 03:00 12.7 88 9.8 10.8 15 22 1019.3 1.6 22.2 28.5 45.7 120.0 116.8 402.7
08/05 02:50 12.6 88 9.74 10.6 15 17 1019.4 1.6 22.1 28.4 45.5 119.5 116.1 400.3
08/05 02:40 12.7 88 9.8 10.7 15 19 1019.2 1.6 22.2 28.5 45.6 120.0 116.8 402.7
08/05 02:30 12.7 88 9.8 10.8 19 32 1019.3 1.6 22.2 28.5 45.7 120.0 116.8 402.7
08/05 02:20 12.5 88 9.68 10.5 11 17 1019.3 1.6 22.0 28.3 45.3 118.9 115.4 397.9
08/05 02:10 12.4 89 9.73 10.6 22 26 1019.4 1.6 22.1 28.4 45.5 119.6 116.3 400.9
08/05 02:00 12.3 90 9.77 10.7 17 26 1019.5 1.6 22.2 28.6 45.8 120.3 117.0 403.4
08/05 01:50 12.2 90 9.71 10.6 17 22 1019.6 1.6 22.0 28.5 45.6 119.7 116.3 401.0
08/05 01:40 12 90 9.59 10.4 15 17 1019.6 1.6 21.8 28.3 45.2 118.7 115.0 396.1
08/05 01:30 12.1 90 9.65 10.5 15 26 1019.8 1.6 21.9 28.4 45.4 119.2 115.7 398.6
08/05 01:20 12 90 9.59 10.4 19 24 1019.7 1.6 21.8 28.3 45.2 118.7 115.0 396.1
08/05 01:10 11.9 90 9.53 10.4 20 24 1020 1.6 21.7 28.3 45.0 118.2 114.3 393.8
08/05 01:00 12 91 9.7 10.6 20 32 1020.1 1.6 22.0 28.6 45.7 120.0 116.6 401.7
08/05 00:50 11.9 90 9.53 10.4 19 20 1020.1 1.6 21.7 28.3 45.0 118.2 114.3 393.8
08/05 00:40 11.7 90 9.41 10.2 22 26 1020.2 1.6 21.4 28.2 44.6 117.1 112.9 388.9
08/05 00:30 11.5 91 9.4 10.1 19 28 1020.1 1.6 21.4 28.2 44.7 117.3 113.1 389.4
08/05 00:20 11.5 92 9.5 10.2 20 28 1020.1 1.6 21.6 28.4 45.1 118.5 114.5 394.4
08/05 00:10 11.3 92 9.39 10 17 20 1020.3 1.6 21.4 28.3 44.8 117.5 113.2 390.0
08/05 00:00 11.4 91 9.34 10 22 32 1020.4 1.6 21.3 28.1 44.5 116.8 112.4 387.1
07/05 23:50 11.3 90 9.18 9.8 19 22 1020.4 1.6 21.0 27.9 43.9 115.1 110.3 379.7
07/05 23:40 11.2 90 9.12 9.7 22 26 1020.5 1.6 20.8 27.8 43.7 114.6 109.6 377.3
07/05 23:30 11.1 91 9.17 9.7 20 35 1020.4 1.6 20.9 27.9 43.9 115.3 110.4 380.2
07/05 23:20 11.1 90 9.07 9.6 19 24 1020.4 1.6 20.7 27.8 43.5 114.2 109.0 375.3
07/05 23:10 11.1 90 9.07 9.5 28 33 1020.4 1.6 20.7 27.8 43.5 114.2 109.0 375.3
07/05 23:00 11.1 90 9.07 9.5 24 41 1020.7 1.6 20.7 27.8 43.5 114.2 109.1 375.4
07/05 22:50 11 90 9.01 9.4 26 32 1021.1 1.6 20.6 27.7 43.3 113.7 108.4 373.0
07/05 22:40 11 89 8.91 9.2 24 33 1021.2 1.6 20.4 27.6 42.9 112.6 107.0 368.2
07/05 22:30 10.9 89 8.85 9.2 26 41 1021.3 1.6 20.3 27.5 42.7 112.1 106.3 365.7
07/05 22:20 10.8 89 8.8 9 26 32 1021.3 1.6 20.2 27.4 42.6 111.7 105.8 363.8
07/05 22:10 10.8 89 8.8 9 22 32 1021.5 1.6 20.2 27.4 42.6 111.7 105.8 363.8
07/05 22:00 10.8 88 8.7 8.9 22 43 1021.5 1.6 19.9 27.3 42.1 110.6 104.4 358.9
07/05 21:50 10.8 88 8.7 8.9 22 30 1021.4 1.6 19.9 27.3 42.1 110.5 104.4 358.9
07/05 21:40 10.7 89 8.74 8.9 20 30 1021.3 1.6 20.0 27.4 42.4 111.1 105.1 361.3
07/05 21:30 10.6 89 8.69 8.9 26 41 1021.4 1.6 19.9 27.3 42.2 110.7 104.5 359.4
07/05 21:20 10.6 89 8.69 8.8 17 24 1021.5 1.6 19.9 27.3 42.2 110.7 104.5 359.4
07/05 21:10 10.5 89 8.63 8.7 17 19 1021.6 1.6 19.8 27.3 42.0 110.2 103.8 356.9
07/05 21:00 10.4 88 8.48 8.5 20 30 1021.6 1.6 19.5 27.0 41.4 108.6 101.9 350.1
07/05 20:50 10.5 88 8.54 8.6 22 30 1021.6 1.6 19.6 27.1 41.6 109.2 102.6 352.6
07/05 20:40 10.6 88 8.59 8.7 17 24 1021.6 1.6 19.7 27.2 41.8 109.6 103.1 354.5
07/05 20:30 10.6 88 8.59 8.7 20 28 1021.7 1.6 19.7 27.2 41.8 109.6 103.1 354.6
07/05 20:20 10.6 88 8.59 8.7 22 26 1021.9 1.6 19.7 27.2 41.8 109.6 103.2 354.6
07/05 20:10 10.5 88 8.54 8.6 19 20 1021.9 1.6 19.6 27.1 41.6 109.2 102.6 352.7
07/05 20:00 10.5 88 8.54 8.6 17 26 1022 1.6 19.6 27.1 41.6 109.2 102.6 352.7

Last Refresh: 08-May-2026 12:08:29

Bureau of Meteorology